Lihue Airport Lihue US
ICAO: PHLI
IATA:
Category: Medium
Scheduled Services:

Elevation: 153 ft
TransAlt. 18000 ft.

Airport Communications:
ATIS:127.2
HONOLULU CNTR:126.5
CTAF:118.9
GND:121.9
HONOLULU:122.6
TWR:118.9

PHLI Zoom In..

If Map Doesn't Load, Click Here

Runways:

(A) RW 03 length 6500 ft width 150 ft
---- / hdg 34

(B) RW 17 length 6500 ft width 150 ft
---- / hdg 169

(C) RW 21 length 6500 ft width 150 ft
---- / hdg 214

(D) RW 35 length 6500 ft width 150 ft
ILS 110.90 / hdg 349

Location; PHLI
Day. 24 / Time. 04.53 Zulu
* Altimeter: 29.87
* Temperature: 25° c. 77°f.
* Wind from: 100° Speed 11 kn.
Dewpoint: 24° c.
Visibility: 10 Statute Miles.
Clouds: Few 1700 ft.
Clouds: Broken 2900 ft.
Clouds: Overcast 5000 ft.

PHLI 240453Z 10011KT 10SM FEW017 BKN029 OVC050 25/24 A2987 RMK AO2 RAB12E24 SLP110 P0000 T02500244


Wind From 100°
Speed 11 kn.

 
 
jpsmedia.com for Web Design worldairports.se 2018   terms of use